Time;durP1;ratioP1;P1;durP2;ratioP2;P2;SDS_P1;SDS_P2;PMS_P1;PMS_P2;Temp;Humidity;BMP_temperature;BMP_pressure;BME280_temperature;BME280_humidity;BME280_pressure;Samples;Min_cycle;Max_cycle;Signal;HPM_P1;HPM_P2
2021/12/25 00:02:07;;;;;;;11.60;4.10;;;;;;;0.96;79.42;97460.79;102862;1319;98561;-72
2021/12/25 00:04:35;;;;;;;;;;;;;;;0.88;79.16;97452.85;103111;1316;107654;-75
2021/12/25 00:07:03;;;;;;;12.50;4.60;;;;;;;0.84;79.28;97461.13;103020;1316;97918;-74
2021/12/25 00:09:31;;;;;;;10.10;4.00;;;;;;;0.81;79.48;97469.83;103006;1319;98681;-74
2021/12/25 00:11:59;;;;;;;9.90;4.50;;;;;;;0.81;79.41;97475.47;102914;1316;111507;-74
2021/12/25 00:14:27;;;;;;;9.80;4.00;;;;;;;0.81;79.43;97486.10;103087;1315;97915;-73
2021/12/25 00:16:57;;;;;;;9.90;4.10;;;;;;;0.79;79.27;97494.94;103004;1320;106434;-74
2021/12/25 00:19:25;;;;;;;10.90;3.90;;;;;;;0.78;79.46;97496.05;102808;1316;98731;-73
2021/12/25 00:21:53;;;;;;;11.90;4.00;;;;;;;0.77;79.39;97500.42;102780;1317;98542;-73
2021/12/25 00:24:21;;;;;;;11.30;4.00;;;;;;;0.74;79.37;97514.90;102959;1316;110051;-72
2021/12/25 00:27:09;;;;;;;12.50;4.70;;;;;;;0.72;79.25;97523.23;102899;1317;96055;-74
2021/12/25 00:34:51;;;;;;;14.90;5.70;;;;;;;0.64;79.33;97543.07;103005;1315;95919;-72
2021/12/25 00:37:19;;;;;;;12.80;4.80;;;;;;;0.61;79.39;97534.34;102961;1315;112578;-73
2021/12/25 00:39:52;;;;;;;10.80;4.90;;;;;;;0.60;79.43;97541.86;102905;1318;97905;-72
2021/12/25 00:42:19;;;;;;;11.90;4.40;;;;;;;0.58;79.32;97552.30;102913;1316;107542;-73
2021/12/25 00:44:51;;;;;;;10.50;4.60;;;;;;;0.56;79.39;97549.95;103092;1315;96303;-73
2021/12/25 00:47:19;;;;;;;14.40;5.20;;;;;;;0.54;79.41;97551.08;102913;1317;97964;-72
2021/12/25 00:49:47;;;;;;;15.90;5.00;;;;;;;0.54;79.48;97552.69;102768;1317;110990;-72
2021/12/25 00:52:15;;;;;;;15.10;4.90;;;;;;;0.51;79.44;97561.94;103192;1316;97976;-73
2021/12/25 00:54:43;;;;;;;12.00;5.20;;;;;;;0.51;79.41;97571.71;102899;1318;107846;-73
2021/12/25 00:57:11;;;;;;;14.50;6.00;;;;;;;0.51;79.39;97580.77;102637;1316;98662;-73
2021/12/25 00:59:39;;;;;;;15.40;5.50;;;;;;;0.51;79.52;97588.76;102884;1315;98023;-72
2021/12/25 01:02:07;;;;;;;15.50;5.80;;;;;;;0.51;79.54;97603.61;102942;1315;112356;-71
2021/12/25 01:04:36;;;;;;;18.00;6.60;;;;;;;0.51;79.44;97601.85;102655;1318;97967;-73
2021/12/25 01:07:04;;;;;;;16.60;5.80;;;;;;;0.52;79.55;97603.92;102735;1316;108031;-74
2021/12/25 01:09:32;;;;;;;14.20;5.40;;;;;;;0.55;79.71;97604.63;102827;1315;98603;-74
2021/12/25 01:12:00;;;;;;;15.70;6.00;;;;;;;0.57;79.50;97617.08;103126;1315;97917;-74
2021/12/25 01:14:41;;;;;;;16.10;6.00;;;;;;;0.58;79.65;97624.67;102851;1318;111533;-74
2021/12/25 01:36:36;;;;;;;18.40;6.60;;;;;;;0.50;79.41;97652.65;103109;1315;97989;-73
2021/12/25 01:39:23;;;;;;;16.90;6.70;;;;;;;0.46;79.48;97659.85;102984;1317;97895;-75
2021/12/25 01:50:15;;;;;;;13.50;5.80;;;;;;;0.47;79.49;97672.20;103070;1316;97950;-75
2021/12/25 01:52:46;;;;;;;16.40;6.90;;;;;;;0.48;79.58;97677.21;103039;1315;97925;-75
2021/12/25 01:55:21;;;;;;;18.60;7.00;;;;;;;0.49;79.55;97689.38;103057;1316;111501;-74
2021/12/25 01:57:54;;;;;;;17.50;6.90;;;;;;;0.47;79.58;97690.85;103053;1316;97918;-74
2021/12/25 02:00:31;;;;;;;17.20;6.70;;;;;;;0.45;79.62;97689.57;103089;1317;107584;-74
2021/12/25 02:03:04;;;;;;;17.50;6.70;;;;;;;0.44;79.62;97690.45;103133;1317;98329;-75
2021/12/25 02:05:35;;;;;;;16.40;7.00;;;;;;;0.43;79.67;97692.08;102967;1319;97984;-77
2021/12/25 02:08:24;;;;;;;16.60;7.10;;;;;;;0.43;79.61;97691.20;103021;1316;110978;-74
2021/12/25 02:10:55;;;;;;;17.30;7.30;;;;;;;0.45;79.59;97694.27;102991;1316;98657;-74
2021/12/25 02:13:25;;;;;;;17.10;6.50;;;;;;;0.46;79.78;97698.40;103013;1317;107841;-73
2021/12/25 02:15:56;;;;;;;18.30;7.20;;;;;;;0.47;79.66;97699.40;103049;1316;95303;-72
2021/12/25 02:21:12;;;;;;;14.70;5.70;;;;;;;0.50;79.76;97705.16;103060;1316;111510;-70
2021/12/25 02:23:41;;;;;;;17.40;6.90;;;;;;;0.51;79.71;97710.89;102984;1319;98026;-72
2021/12/25 02:26:09;;;;;;;15.40;6.40;;;;;;;0.50;79.74;97725.95;103070;1315;107933;-72
2021/12/25 02:28:42;;;;;;;17.30;7.10;;;;;;;0.49;79.67;97728.41;103046;1316;98010;-71
2021/12/25 02:31:15;;;;;;;13.60;5.80;;;;;;;0.47;79.78;97723.63;103118;1315;98632;-71
2021/12/25 02:33:44;;;;;;;15.70;7.00;;;;;;;0.47;79.63;97732.90;102855;1316;111148;-71
2021/12/25 02:36:15;;;;;;;17.60;7.70;;;;;;;0.47;79.63;97733.95;103035;1319;97936;-71
2021/12/25 02:38:45;;;;;;;15.70;6.40;;;;;;;0.44;79.83;97746.30;103032;1316;107497;-73
2021/12/25 02:41:15;;;;;;;15.90;6.30;;;;;;;0.41;79.57;97755.34;102940;1316;95287;-73
2021/12/25 02:43:46;;;;;;;19.10;8.60;;;;;;;0.41;79.81;97750.80;103103;1317;97986;-73
2021/12/25 02:46:16;;;;;;;20.70;8.10;;;;;;;0.40;79.56;97751.21;102879;1319;111316;-72
2021/12/25 02:48:44;;;;;;;19.60;8.00;;;;;;;0.42;79.79;97754.25;103054;1317;126131;-72
2021/12/25 02:51:15;;;;;;;17.50;7.00;;;;;;;0.42;79.84;97755.65;102956;1316;106870;-72
2021/12/25 02:53:43;;;;;;;19.60;7.70;;;;;;;0.41;79.81;97750.13;102956;1317;97858;-73
2021/12/25 02:56:11;;;;;;;18.30;8.10;;;;;;;0.38;79.82;97758.12;103006;1320;97954;-72
2021/12/25 02:58:39;;;;;;;18.90;7.50;;;;;;;0.38;79.80;97762.13;102978;1319;109148;-72
2021/12/25 03:01:18;;;;;;;19.40;7.20;;;;;;;0.38;79.83;97765.95;103149;1315;95371;-72
2021/12/25 03:03:48;;;;;;;17.20;6.50;;;;;;;0.39;79.85;97769.26;103021;1318;107916;-71
2021/12/25 03:06:16;;;;;;;19.20;7.70;;;;;;;0.38;79.90;97774.68;103141;1315;97814;-72
2021/12/25 03:08:48;;;;;;;18.70;7.10;;;;;;;0.35;79.82;97777.29;103151;1315;97972;-72
2021/12/25 03:11:16;;;;;;;18.40;7.70;;;;;;;0.34;79.85;97782.41;103068;1316;111629;-71
2021/12/25 03:13:57;;;;;;;20.20;8.50;;;;;;;0.34;79.85;97782.08;102932;1319;97854;-75
2021/12/25 03:16:27;;;;;;;20.60;8.10;;;;;;;0.33;79.82;97785.95;102952;1318;107843;-71
2021/12/25 03:18:57;;;;;;;22.20;8.80;;;;;;;0.32;79.82;97782.34;102893;1319;96778;-71
2021/12/25 03:21:29;;;;;;;19.60;8.00;;;;;;;0.31;79.74;97786.77;102995;1318;97906;-72
2021/12/25 03:23:56;;;;;;;20.90;8.80;;;;;;;0.28;79.89;97785.98;102962;1317;111806;-73
2021/12/25 03:26:24;;;;;;;20.00;8.80;;;;;;;0.29;79.85;97790.48;102753;1318;97979;-72
2021/12/25 03:28:53;;;;;;;19.60;8.40;;;;;;;0.30;79.82;97792.39;103019;1323;107834;-73
2021/12/25 03:31:23;;;;;;;19.30;8.50;;;;;;;0.28;79.80;97789.47;103033;1316;97949;-72
2021/12/25 03:33:55;;;;;;;20.00;8.70;;;;;;;0.27;79.81;97798.95;103074;1321;98014;-73
2021/12/25 03:36:24;;;;;;;21.10;9.50;;;;;;;0.26;79.88;97802.48;102907;1318;112354;-72
2021/12/25 03:38:53;;;;;;;21.60;8.60;;;;;;;0.27;79.88;97808.73;102984;1319;97855;-73
2021/12/25 03:41:21;;;;;;;21.40;8.60;;;;;;;0.27;79.79;97818.70;102884;1319;107857;-72
2021/12/25 03:43:49;;;;;;;22.90;9.20;;;;;;;0.26;79.83;97825.17;102975;1321;96061;-72
2021/12/25 03:46:21;;;;;;;18.70;8.20;;;;;;;0.25;79.83;97836.02;103038;1318;98021;-73
2021/12/25 03:59:57;;;;;;;21.60;9.50;;;;;;;0.20;79.80;97851.64;103036;1319;95350;-72
2021/12/25 04:02:34;;;;;;;20.30;8.20;;;;;;;0.19;79.89;97853.98;103034;1319;111574;-72
2021/12/25 04:05:07;;;;;;;19.30;8.80;;;;;;;0.16;79.78;97857.95;102959;1318;98560;-71
2021/12/25 04:08:01;;;;;;;21.50;9.40;;;;;;;0.15;79.87;97857.82;102992;1319;105894;-71
2021/12/25 04:10:36;;;;;;;22.50;9.60;;;;;;;0.09;79.78;97859.45;102971;1318;97993;-73
2021/12/25 04:13:06;;;;;;;;;;;;;;;0.09;79.81;97864.04;103139;1316;96116;-72
2021/12/25 04:15:36;;;;;;;21.30;9.30;;;;;;;0.07;79.87;97872.31;103252;1317;111512;-72
2021/12/25 04:18:06;;;;;;;20.60;9.70;;;;;;;0.03;79.73;97877.41;103071;1318;97897;-72
2021/12/25 04:20:41;;;;;;;18.70;8.80;;;;;;;-0.03;79.81;97890.23;103083;1319;107854;-76
2021/12/25 04:23:15;;;;;;;14.10;6.10;;;;;;;-0.09;79.82;97897.47;103026;1316;98616;-72
2021/12/25 04:25:45;;;;;;;10.80;5.10;;;;;;;-0.18;79.52;97905.06;103090;1319;98034;-72
2021/12/25 04:28:20;;;;;;;10.20;5.10;;;;;;;-0.30;79.45;97908.56;103098;1322;111421;-72
2021/12/25 04:47:56;;;;;;;14.20;5.30;;;;;;;-0.62;79.38;97957.06;102966;1317;107875;-72
2021/12/25 05:06:51;;;;;;;11.40;4.90;;;;;;;-0.94;79.52;97995.52;103092;1318;97888;-73
2021/12/25 05:09:19;;;;;;;9.30;4.60;;;;;;;-0.95;79.66;97998.70;103100;1319;112005;-72
2021/12/25 05:11:47;;;;;;;10.80;4.90;;;;;;;-0.98;79.43;98012.08;103080;1320;97769;-73
2021/12/25 05:14:15;;;;;;;8.80;4.20;;;;;;;-1.01;79.53;98028.04;102947;1322;107901;-73
2021/12/25 05:16:43;;;;;;;9.40;4.10;;;;;;;-1.03;79.52;98035.95;103123;1316;97905;-73
2021/12/25 05:19:15;;;;;;;11.90;4.20;;;;;;;-1.10;79.51;98030.32;103076;1317;97928;-73
2021/12/25 05:21:43;;;;;;;10.60;5.00;;;;;;;-1.14;79.36;98042.50;103150;1316;111540;-73
2021/12/25 05:24:13;;;;;;;10.60;4.60;;;;;;;-1.15;79.34;98043.91;103187;1317;97930;-75
2021/12/25 05:26:42;;;;;;;9.30;4.20;;;;;;;-1.17;79.36;98053.59;103158;1318;106782;-76
2021/12/25 05:29:12;;;;;;;11.60;5.00;;;;;;;-1.21;79.43;98055.44;103155;1317;98094;-74
2021/12/25 05:31:39;;;;;;;6.60;4.10;;;;;;;-1.25;79.53;98054.23;103199;1315;97977;-74
2021/12/25 05:34:10;;;;;;;8.70;4.00;;;;;;;-1.27;79.42;98060.57;103039;1319;111456;-73
2021/12/25 05:36:39;;;;;;;8.70;4.00;;;;;;;-1.29;79.47;98059.44;103001;1319;95778;-73
2021/12/25 05:39:11;;;;;;;9.10;4.30;;;;;;;-1.32;79.43;98064.08;103082;1316;107909;-72
2021/12/25 05:41:42;;;;;;;7.00;4.00;;;;;;;-1.36;79.34;98072.92;102910;1318;95232;-73
2021/12/25 05:44:10;;;;;;;10.90;4.50;;;;;;;-1.37;79.44;98079.77;103135;1317;97879;-72
2021/12/25 05:46:42;;;;;;;8.60;4.00;;;;;;;-1.38;79.61;98084.13;103030;1317;111259;-72
2021/12/25 05:49:10;;;;;;;10.10;4.60;;;;;;;-1.39;79.58;98086.81;103090;1319;97974;-74
2021/12/25 05:51:39;;;;;;;9.70;3.90;;;;;;;-1.41;79.52;98098.18;103030;1317;107887;-74
2021/12/25 05:54:07;;;;;;;8.70;4.20;;;;;;;-1.42;79.50;98103.45;102868;1318;98005;-75
2021/12/25 05:56:39;;;;;;;10.60;4.30;;;;;;;-1.45;79.55;98106.87;103119;1317;96025;-73
2021/12/25 05:59:07;;;;;;;12.90;4.80;;;;;;;-1.44;79.40;98105.98;103125;1315;111490;-74
2021/12/25 06:01:35;;;;;;;13.00;5.10;;;;;;;-1.46;79.58;98100.29;103082;1317;97902;-75
2021/12/25 06:04:06;;;;;;;13.20;5.10;;;;;;;-1.44;79.74;98107.70;103125;1316;106009;-74
2021/12/25 06:06:37;;;;;;;13.50;5.40;;;;;;;-1.43;79.61;98110.12;103152;1317;98020;-73
2021/12/25 06:09:09;;;;;;;9.70;4.50;;;;;;;-1.43;79.62;98106.98;103188;1316;97975;-73
2021/12/25 06:11:43;;;;;;;9.50;4.50;;;;;;;-1.41;79.80;98115.40;103080;1316;111568;-73
2021/12/25 06:14:19;;;;;;;12.90;5.40;;;;;;;-1.40;79.63;98117.10;103128;1316;97844;-74
2021/12/25 06:16:50;;;;;;;11.60;5.20;;;;;;;-1.44;79.68;98127.52;103098;1316;106342;-75
2021/12/25 06:19:20;;;;;;;12.70;5.00;;;;;;;-1.46;79.59;98131.63;103123;1317;97853;-74
2021/12/25 06:21:49;;;;;;;14.50;5.60;;;;;;;-1.56;79.36;98143.29;103105;1316;97896;-74
2021/12/25 06:24:17;;;;;;;8.20;3.90;;;;;;;-1.63;79.20;98147.55;103103;1315;111222;-75
2021/12/25 06:26:47;;;;;;;10.20;3.90;;;;;;;-1.69;79.00;98150.55;103159;1316;97905;-73
2021/12/25 06:29:19;;;;;;;7.90;3.70;;;;;;;-1.77;79.07;98159.36;102836;1318;105450;-75
2021/12/25 06:31:52;;;;;;;10.50;4.60;;;;;;;-1.84;79.03;98172.66;102984;1316;97950;-84
2021/12/25 06:34:20;;;;;;;8.70;4.00;;;;;;;-1.88;79.36;98177.48;103163;1316;96357;-73
2021/12/25 06:36:48;;;;;;;11.10;4.30;;;;;;;-1.92;78.93;98178.67;103074;1316;111218;-73
2021/12/25 06:39:17;;;;;;;10.00;4.20;;;;;;;-1.94;79.14;98186.21;103076;1316;96398;-73
2021/12/25 06:41:45;;;;;;;11.00;4.70;;;;;;;-1.96;79.07;98192.37;102983;1320;105585;-72
2021/12/25 06:44:12;;;;;;;9.20;4.50;;;;;;;-1.97;79.18;98197.11;103095;1317;97991;-73
2021/12/25 06:46:47;;;;;;;9.20;3.80;;;;;;;-1.97;79.01;98198.98;103075;1319;95974;-73
2021/12/25 06:49:15;;;;;;;9.50;3.80;;;;;;;-1.99;79.23;98192.63;102932;1318;110509;-73
2021/12/25 06:51:49;;;;;;;6.70;3.70;;;;;;;-2.02;79.01;98197.46;103136;1316;97928;-75
2021/12/25 06:54:21;;;;;;;9.20;3.90;;;;;;;-2.04;79.23;98193.33;103029;1316;105939;-72
2021/12/25 06:56:49;;;;;;;12.30;5.10;;;;;;;-2.04;79.26;98191.79;103028;1317;99031;-71
2021/12/25 06:59:21;;;;;;;14.90;6.20;;;;;;;-2.02;79.04;98197.98;102930;1318;98020;-70
2021/12/25 07:01:52;;;;;;;16.30;6.20;;;;;;;-1.99;79.39;98209.48;103011;1316;111559;-70
2021/12/25 07:04:21;;;;;;;17.10;6.90;;;;;;;-1.98;79.32;98206.70;103109;1317;97931;-71
2021/12/25 07:06:48;;;;;;;16.20;6.30;;;;;;;-1.98;79.22;98199.74;102897;1319;107029;-70
2021/12/25 07:09:16;;;;;;;19.90;7.20;;;;;;;-1.95;79.40;98198.94;102945;1316;97909;-71
2021/12/25 07:11:44;;;;;;;19.30;7.40;;;;;;;-1.91;79.30;98203.65;102889;1319;97788;-71
2021/12/25 07:14:17;;;;;;;19.80;7.50;;;;;;;-1.88;79.45;98212.59;103052;1316;111386;-70
2021/12/25 07:16:44;;;;;;;16.90;6.50;;;;;;;-1.88;79.16;98227.55;103091;1317;97909;-71
2021/12/25 07:19:15;;;;;;;15.00;6.50;;;;;;;-1.92;79.20;98225.95;103059;1316;106046;-71
2021/12/25 07:21:45;;;;;;;17.30;6.60;;;;;;;-1.92;79.26;98225.59;102898;1318;97845;-71
2021/12/25 07:24:14;;;;;;;18.60;6.90;;;;;;;-1.94;78.94;98228.10;103096;1316;97896;-70
2021/12/25 07:26:43;;;;;;;20.50;7.40;;;;;;;-1.93;79.26;98239.72;103076;1316;111627;-70
2021/12/25 07:29:11;;;;;;;19.20;7.10;;;;;;;-1.89;79.06;98242.70;103158;1315;97997;-70
2021/12/25 07:31:39;;;;;;;19.60;7.70;;;;;;;-1.84;79.16;98237.66;103080;1316;107966;-70
2021/12/25 07:34:06;;;;;;;18.20;7.40;;;;;;;-1.82;79.06;98236.52;103048;1315;97927;-69
2021/12/25 07:36:34;;;;;;;19.30;7.60;;;;;;;-1.78;79.27;98241.27;103131;1317;97905;-70
2021/12/25 07:39:06;;;;;;;18.00;7.40;;;;;;;-1.76;79.11;98244.68;103181;1315;112131;-70
2021/12/25 07:41:34;;;;;;;21.50;8.30;;;;;;;-1.74;79.36;98246.86;103095;1316;97988;-71
2021/12/25 07:44:02;;;;;;;23.70;9.10;;;;;;;-1.73;79.40;98253.76;103080;1315;108970;-71
2021/12/25 07:46:33;;;;;;;25.10;10.00;;;;;;;-1.70;79.25;98261.67;103177;1316;97998;-70
2021/12/25 07:49:04;;;;;;;28.00;10.30;;;;;;;-1.66;79.31;98257.52;102871;1318;95463;-70
2021/12/25 07:51:33;;;;;;;22.60;9.70;;;;;;;-1.65;79.21;98266.17;103042;1317;111592;-69
2021/12/25 07:54:00;;;;;;;25.80;11.50;;;;;;;-1.64;79.33;98268.07;103145;1315;97951;-69
2021/12/25 07:56:28;;;;;;;26.00;11.00;;;;;;;-1.66;78.96;98266.20;103135;1315;108461;-69
2021/12/25 07:58:56;;;;;;;22.50;10.30;;;;;;;-1.69;79.02;98267.20;103056;1315;98011;-69
2021/12/25 08:01:24;;;;;;;24.60;10.30;;;;;;;-1.75;78.95;98263.05;103001;1316;98018;-69
2021/12/25 08:03:53;;;;;;;25.10;11.70;;;;;;;-1.74;78.93;98263.55;103012;1315;112058;-69
2021/12/25 08:06:23;;;;;;;26.00;10.70;;;;;;;-1.72;79.24;98270.27;103145;1316;98116;-71
2021/12/25 08:08:55;;;;;;;25.30;10.80;;;;;;;-1.72;79.01;98272.85;103068;1320;108557;-72
2021/12/25 08:11:30;;;;;;;25.50;11.60;;;;;;;-1.73;79.05;98272.89;102986;1316;97877;-71
2021/12/25 08:14:00;;;;;;;27.00;12.70;;;;;;;-1.75;78.83;98287.05;103064;1316;97984;-72
2021/12/25 08:16:29;;;;;;;25.00;11.50;;;;;;;-1.77;79.27;98278.42;102761;1315;111719;-70
2021/12/25 08:18:56;;;;;;;27.80;10.30;;;;;;;-1.76;79.09;98283.24;103026;1318;99199;-70
2021/12/25 08:21:24;;;;;;;32.90;14.10;;;;;;;-1.79;78.93;98290.33;103045;1316;108441;-70
2021/12/25 08:23:54;;;;;;;25.50;9.70;;;;;;;-1.81;78.82;98298.53;102998;1316;99373;-73
2021/12/25 08:26:27;;;;;;;18.30;7.90;;;;;;;-1.84;78.88;98304.55;103019;1315;99348;-69
2021/12/25 08:28:54;;;;;;;17.90;7.30;;;;;;;-1.90;78.66;98304.96;102941;1316;112741;-70
2021/12/25 08:31:22;;;;;;;19.60;7.60;;;;;;;-1.98;78.67;98304.69;103078;1315;97709;-69
2021/12/25 08:33:50;;;;;;;18.00;7.70;;;;;;;-2.12;78.73;98311.06;102991;1315;108371;-70
2021/12/25 08:36:18;;;;;;;19.50;6.60;;;;;;;-2.24;78.53;98314.24;102867;1317;99375;-70
2021/12/25 08:38:46;;;;;;;21.00;8.70;;;;;;;-2.31;78.35;98320.54;102890;1317;99258;-69
2021/12/25 08:41:26;;;;;;;19.00;7.50;;;;;;;-2.29;78.67;98320.14;102953;1316;112716;-70
2021/12/25 08:44:06;;;;;;;18.10;7.10;;;;;;;-2.27;78.65;98324.59;102930;1315;97805;-70
2021/12/25 08:46:45;;;;;;;18.20;7.40;;;;;;;-2.30;78.50;98331.08;102874;1316;107795;-70
2021/12/25 08:49:16;;;;;;;18.30;6.80;;;;;;;-2.34;78.59;98317.31;102965;1315;99258;-71
2021/12/25 08:51:46;;;;;;;19.10;7.00;;;;;;;-2.38;78.49;98322.48;103021;1315;97366;-69
2021/12/25 08:54:14;;;;;;;19.60;7.80;;;;;;;-2.38;78.45;98325.81;103013;1319;111075;-69
2021/12/25 08:56:42;;;;;;;20.50;8.60;;;;;;;-2.36;78.74;98332.53;102999;1315;99374;-70
2021/12/25 08:59:10;;;;;;;21.90;9.20;;;;;;;-2.42;78.29;98329.91;103041;1320;108898;-69
2021/12/25 09:01:41;;;;;;;19.10;7.90;;;;;;;-2.48;78.45;98326.98;102988;1316;99317;-71
2021/12/25 09:04:09;;;;;;;21.70;8.70;;;;;;;-2.47;78.47;98330.08;103072;1315;99284;-70
2021/12/25 09:06:39;;;;;;;19.70;6.80;;;;;;;-2.46;78.84;98335.95;103043;1317;113431;-70
2021/12/25 09:09:07;;;;;;;22.40;8.20;;;;;;;-2.50;78.56;98341.44;102919;1315;99320;-69
2021/12/25 09:11:40;;;;;;;20.10;7.30;;;;;;;-2.57;78.44;98348.42;102988;1320;108010;-70
2021/12/25 09:14:08;;;;;;;18.50;6.60;;;;;;;-2.56;78.42;98356.89;102992;1316;99304;-69
2021/12/25 09:16:37;;;;;;;17.80;6.30;;;;;;;-2.58;78.60;98359.04;103062;1316;97923;-68
2021/12/25 09:19:05;;;;;;;18.10;6.60;;;;;;;-2.64;78.36;98362.70;102970;1315;113586;-70
2021/12/25 09:21:33;;;;;;;18.60;6.90;;;;;;;-2.66;78.52;98357.92;103090;1316;99228;-70
2021/12/25 09:24:02;;;;;;;25.10;9.30;;;;;;;-2.67;78.42;98352.04;103005;1316;107458;-75
2021/12/25 09:26:30;;;;;;;25.70;9.50;;;;;;;-2.72;78.58;98351.13;102981;1315;99233;-70
2021/12/25 09:28:58;;;;;;;25.60;8.80;;;;;;;-2.74;78.23;98349.65;103079;1319;99213;-71
2021/12/25 09:31:27;;;;;;;25.00;8.30;;;;;;;-2.78;78.32;98354.11;103150;1315;113453;-70
2021/12/25 09:33:55;;;;;;;22.00;7.70;;;;;;;-2.80;78.48;98352.42;103018;1320;99789;-69
2021/12/25 09:36:23;;;;;;;26.60;8.40;;;;;;;-2.79;78.20;98359.17;103029;1315;107713;-69
2021/12/25 09:38:50;;;;;;;26.80;10.20;;;;;;;-2.78;78.57;98366.61;102962;1317;99268;-77
2021/12/25 09:41:20;;;;;;;27.00;9.10;;;;;;;-2.83;78.44;98366.39;102983;1317;99399;-71
2021/12/25 09:43:49;;;;;;;19.50;7.10;;;;;;;-2.84;78.42;98365.89;103018;1315;112837;-74
2021/12/25 09:46:20;;;;;;;17.30;6.90;;;;;;;-2.87;78.20;98365.63;102995;1315;99289;-71
2021/12/25 09:48:50;;;;;;;16.00;5.70;;;;;;;-2.88;78.19;98366.38;102989;1315;107808;-72
2021/12/25 09:51:19;;;;;;;21.50;7.00;;;;;;;-2.88;78.19;98371.57;103065;1315;99268;-76
2021/12/25 09:54:05;;;;;;;21.70;6.80;;;;;;;-2.94;78.36;98379.89;103063;1316;97408;-74
2021/12/25 09:56:35;;;;;;;17.60;6.30;;;;;;;-3.00;78.02;98376.09;103166;1316;112705;-70
2021/12/25 09:59:05;;;;;;;21.50;7.70;;;;;;;-3.07;77.96;98367.79;103078;1320;98453;-71
2021/12/25 10:01:40;;;;;;;23.40;8.10;;;;;;;-3.08;77.90;98366.44;102990;1319;107881;-71
2021/12/25 10:04:13;;;;;;;17.90;6.70;;;;;;;-3.05;78.15;98363.36;103119;1316;100055;-70
2021/12/25 10:06:44;;;;;;;17.80;6.30;;;;;;;-3.01;78.19;98364.83;103063;1320;96641;-71
2021/12/25 10:09:24;;;;;;;16.50;5.80;;;;;;;-3.05;78.11;98364.25;103055;1317;112880;-74
2021/12/25 10:12:00;;;;;;;17.90;7.10;;;;;;;-3.10;77.88;98366.82;103228;1317;99287;-70
2021/12/25 10:14:40;;;;;;;21.80;8.00;;;;;;;-3.15;78.12;98370.76;103031;1319;107871;-73
2021/12/25 10:17:29;;;;;;;18.80;7.30;;;;;;;-3.19;77.97;98368.98;103071;1315;99328;-73
2021/12/25 10:20:09;;;;;;;21.10;6.70;;;;;;;-3.18;78.00;98372.24;103169;1320;99282;-68
2021/12/25 10:22:58;;;;;;;17.00;6.40;;;;;;;-3.15;77.99;98377.89;103659;1316;112869;-69
2021/12/25 10:25:35;;;;;;;21.10;6.90;;;;;;;-3.13;78.00;98370.20;103098;1317;99221;-73
2021/12/25 10:28:08;;;;;;;20.90;7.30;;;;;;;-3.15;77.89;98371.64;103220;1316;108025;-69
2021/12/25 10:31:00;;;;;;;21.20;7.80;;;;;;;-3.16;77.76;98372.71;103020;1315;99470;-70
2021/12/25 10:33:36;;;;;;;24.40;8.90;;;;;;;-3.21;77.67;98381.86;103025;1317;99145;-70
2021/12/25 10:36:22;;;;;;;34.90;11.90;;;;;;;-3.20;77.81;98378.37;102990;1315;112857;-69
2021/12/25 10:39:06;;;;;;;23.50;8.00;;;;;;;-3.16;77.87;98377.20;103155;1317;99159;-73
2021/12/25 10:41:41;;;;;;;25.30;7.20;;;;;;;-3.14;77.99;98376.13;102952;1318;109234;-71
2021/12/25 10:44:20;;;;;;;22.50;7.00;;;;;;;-3.16;77.75;98381.36;102961;1319;99394;-71
2021/12/25 10:47:00;;;;;;;19.90;6.80;;;;;;;-3.15;77.82;98377.54;102996;1316;98118;-71
2021/12/25 10:49:30;;;;;;;16.00;6.40;;;;;;;-3.18;77.80;98379.55;102894;1316;135751;-70
2021/12/25 10:52:15;;;;;;;18.30;6.40;;;;;;;-3.16;77.83;98381.04;103075;1316;99107;-71
2021/12/25 10:54:53;;;;;;;21.30;7.60;;;;;;;-3.10;77.80;98379.31;103036;1315;107828;-69
2021/12/25 10:57:40;;;;;;;20.10;7.90;;;;;;;-3.08;77.86;98380.65;103034;1315;99256;-70
2021/12/25 11:00:20;;;;;;;22.30;8.10;;;;;;;-3.04;78.03;98377.58;102849;1317;100007;-71
2021/12/25 11:02:56;;;;;;;20.10;6.90;;;;;;;-3.03;77.77;98372.51;102900;1316;112830;-71
2021/12/25 11:05:33;;;;;;;18.50;6.10;;;;;;;-3.03;77.54;98374.42;102977;1316;99710;-72
2021/12/25 11:08:08;;;;;;;20.20;6.70;;;;;;;-3.01;77.80;98372.10;102991;1317;107827;-73
2021/12/25 11:10:56;;;;;;;18.30;5.60;;;;;;;-3.01;77.83;98366.53;102968;1315;99345;-71
2021/12/25 11:13:29;;;;;;;16.60;6.30;;;;;;;-3.02;77.95;98369.89;102926;1315;99361;-71
2021/12/25 11:16:05;;;;;;;18.10;5.70;;;;;;;-3.05;77.62;98375.02;102878;1315;112923;-73
2021/12/25 11:19:10;;;;;;;18.10;6.70;;;;;;;-3.07;77.79;98380.64;102880;1316;99270;-71
2021/12/25 11:21:55;;;;;;;21.10;6.50;;;;;;;-3.12;77.66;98386.13;102831;1323;107895;-70
2021/12/25 11:24:27;;;;;;;19.90;7.50;;;;;;;-3.14;77.44;98387.05;102866;1316;99237;-71
2021/12/25 11:27:03;;;;;;;20.00;6.70;;;;;;;-3.07;77.66;98389.63;102836;1320;98082;-73
2021/12/25 11:29:34;;;;;;;21.60;6.90;;;;;;;-3.02;77.84;98385.84;102858;1316;112905;-70
2021/12/25 11:32:05;;;;;;;18.30;6.10;;;;;;;-2.94;77.73;98386.14;103194;1316;99226;-70
2021/12/25 11:34:35;;;;;;;19.40;5.90;;;;;;;-2.87;77.71;98380.76;102997;1317;107827;-70
2021/12/25 11:37:05;;;;;;;19.60;6.90;;;;;;;-2.85;77.53;98379.99;102730;1316;99243;-71
2021/12/25 11:39:34;;;;;;;25.20;9.60;;;;;;;-2.89;77.66;98378.19;102865;1316;96562;-71
2021/12/25 11:42:07;;;;;;;32.60;8.70;;;;;;;-2.87;77.49;98372.24;102844;1316;112909;-72
2021/12/25 11:44:45;;;;;;;33.40;12.70;;;;;;;-2.87;77.64;98371.20;102972;1316;99310;-71
2021/12/25 11:47:41;;;;;;;31.20;12.90;;;;;;;-2.91;77.36;98365.25;102950;1317;106401;-70
2021/12/25 11:50:09;;;;;;;25.90;8.80;;;;;;;-2.89;77.48;98362.07;102822;1317;99197;-70
2021/12/25 11:52:53;;;;;;;26.20;11.80;;;;;;;-2.87;77.24;98370.17;103021;1316;99334;-70
2021/12/25 11:58:40;;;;;;;27.10;9.50;;;;;;;-2.98;77.28;98376.36;102988;1320;99746;-70
2021/12/25 12:01:31;;;;;;;28.80;10.60;;;;;;;-2.96;77.31;98387.61;102807;1325;107898;-71
2021/12/25 12:04:11;;;;;;;26.30;8.20;;;;;;;-2.92;77.18;98396.50;103003;1316;99341;-70
2021/12/25 12:06:47;;;;;;;25.60;8.60;;;;;;;-2.86;77.50;98397.55;103177;1317;99319;-70
2021/12/25 12:09:22;;;;;;;27.00;10.30;;;;;;;-2.78;77.55;98399.56;103160;1317;112793;-75
2021/12/25 12:12:12;;;;;;;26.20;8.60;;;;;;;-2.70;77.61;98398.30;103205;1317;99262;-75
2021/12/25 12:14:40;;;;;;;21.70;7.20;;;;;;;-2.65;77.45;98402.88;102941;1320;107483;-74
2021/12/25 12:17:28;;;;;;;20.70;7.60;;;;;;;-2.64;77.41;98406.98;102975;1317;99170;-77
2021/12/25 12:20:00;;;;;;;24.10;7.50;;;;;;;-2.61;77.59;98410.02;103154;1317;99391;-73
2021/12/25 12:22:47;;;;;;;19.40;6.30;;;;;;;-2.63;77.23;98412.30;103148;1321;112063;-73
2021/12/25 12:28:03;;;;;;;18.80;6.80;;;;;;;-2.65;77.21;98406.83;102651;1317;108644;-76
2021/12/25 12:30:30;;;;;;;20.90;7.00;;;;;;;-2.63;76.97;98409.18;102861;1321;99373;-71
2021/12/25 12:33:22;;;;;;;23.30;8.10;;;;;;;-2.59;77.45;98409.42;103022;1316;99493;-71
2021/12/25 12:35:54;;;;;;;24.00;8.50;;;;;;;-2.53;77.21;98408.02;102952;1316;112864;-70
2021/12/25 12:41:51;;;;;;;28.20;11.40;;;;;;;-2.41;77.49;98403.32;102884;1317;108302;-71
2021/12/25 12:44:31;;;;;;;;;;;;;;;-2.35;77.29;98404.72;103586;1325;99398;-73
2021/12/25 12:47:03;;;;;;;26.50;9.40;;;;;;;-2.36;77.08;98412.02;103657;1326;97036;-72
2021/12/25 12:49:55;;;;;;;32.80;11.60;;;;;;;-2.35;76.87;98419.31;104446;1316;113013;-72
2021/12/25 12:52:35;;;;;;;25.50;8.60;;;;;;;-2.34;77.08;98425.52;103879;1316;97346;-72
2021/12/25 12:55:05;;;;;;;23.40;7.10;;;;;;;-2.31;76.81;98426.14;103421;1317;107883;-71
2021/12/25 12:57:43;;;;;;;22.60;7.90;;;;;;;-2.30;76.79;98431.48;102906;1322;100501;-72
2021/12/25 13:00:22;;;;;;;27.70;9.10;;;;;;;-2.28;76.88;98442.02;103964;1316;99227;-72
2021/12/25 13:02:54;;;;;;;20.60;6.40;;;;;;;-2.23;76.73;98449.85;102947;1316;113003;-72
2021/12/25 13:05:38;;;;;;;25.50;7.90;;;;;;;-2.21;76.74;98441.62;102849;1321;99227;-73
2021/12/25 13:08:22;;;;;;;26.90;9.50;;;;;;;-2.18;77.00;98445.52;103050;1317;107813;-71
2021/12/25 13:10:53;;;;;;;25.80;8.80;;;;;;;-2.14;76.78;98448.39;102941;1316;99229;-71